Eden, Vermont
Current Conditions -  °F | °C
As of 9:35 PM on Thursday 20 Nov 2014 (Local Time) from KEFK Reporting Station
Scattered Clouds Scattered Clouds  
Wind Chill: 15°   Ceiling: Unl
Heat Index: 24°   Visibility: 10mi
Dew Point:   Wind: 8mph
Humidity: 53%   Direction: 220°SW
Pressure: 29.77"   Gusts: NA
Location:  44.71°N, 72.55°W
Report Text: KEFK 210235Z AUTO 22007KT 10SM SCT048 M05/M13 A2977 RMK AO2 T10471130
Loading
Personal Weather Stations






























Interactive Weather Map New forecast layout! Learn more

10-Day Weather Forecast

Advertisements
Track Severe Weather on mobile